createdAt,value
2023-12-30T00:02:19.199Z,13.13
2023-12-30T00:04:45.858Z,14.80
2023-12-30T00:07:12.560Z,13.55
2023-12-30T00:09:39.197Z,11.88
2023-12-30T00:12:06.391Z,11.48
2023-12-30T00:14:33.077Z,13.70
2023-12-30T00:16:59.664Z,14.40
2023-12-30T00:19:26.948Z,13.20
2023-12-30T00:21:53.858Z,12.73
2023-12-30T00:24:20.526Z,12.98
2023-12-30T00:26:47.501Z,11.60
2023-12-30T00:29:14.144Z,12.57
2023-12-30T00:31:40.858Z,12.93
2023-12-30T00:34:07.614Z,11.55
2023-12-30T00:36:34.730Z,11.20
2023-12-30T00:39:01.392Z,12.40
2023-12-30T00:41:28.369Z,12.27
2023-12-30T00:43:55.045Z,13.70
2023-12-30T00:46:22.943Z,14.38
2023-12-30T00:48:56.836Z,14.10
2023-12-30T00:51:24.876Z,13.55
2023-12-30T00:53:51.708Z,16.20
2023-12-30T00:56:18.519Z,14.48
2023-12-30T00:58:45.268Z,16.30
2023-12-30T01:01:12.054Z,14.50
2023-12-30T01:03:41.421Z,15.55
2023-12-30T01:06:08.388Z,15.25
2023-12-30T01:08:38.095Z,13.73
2023-12-30T01:11:05.040Z,13.77
2023-12-30T01:13:31.906Z,13.27
2023-12-30T01:15:58.830Z,13.55
2023-12-30T01:18:26.492Z,12.77
2023-12-30T01:20:53.405Z,15.30
2023-12-30T01:23:20.039Z,13.63
2023-12-30T01:25:46.726Z,14.63
2023-12-30T01:28:13.381Z,13.23
2023-12-30T01:30:41.220Z,12.65
2023-12-30T01:33:08.666Z,14.57
2023-12-30T01:35:35.877Z,14.45
2023-12-30T01:38:04.940Z,14.25
2023-12-30T01:40:32.872Z,12.93
2023-12-30T01:43:03.985Z,14.05
2023-12-30T01:45:31.001Z,15.15
2023-12-30T01:47:57.856Z,14.60
2023-12-30T01:50:24.979Z,14.38
2023-12-30T01:52:52.167Z,14.93
2023-12-30T01:55:20.189Z,13.70
2023-12-30T01:57:47.055Z,14.38
2023-12-30T02:00:23.494Z,14.75
2023-12-30T02:02:51.222Z,14.27
2023-12-30T02:05:18.966Z,13.23
2023-12-30T02:07:46.697Z,13.38
2023-12-30T02:10:14.058Z,12.43
2023-12-30T02:12:41.207Z,12.82
2023-12-30T02:15:14.876Z,13.63
2023-12-30T02:17:42.010Z,12.00
2023-12-30T02:20:09.247Z,11.85
2023-12-30T02:22:36.039Z,11.90
2023-12-30T02:25:04.048Z,12.07
2023-12-30T02:27:30.927Z,11.35
2023-12-30T02:29:57.658Z,10.70
2023-12-30T02:32:24.357Z,11.15
2023-12-30T02:34:51.125Z,10.60
2023-12-30T02:37:17.933Z,11.60
2023-12-30T02:39:44.635Z,10.75
2023-12-30T02:42:11.275Z,11.25
2023-12-30T02:44:38.267Z,12.02
2023-12-30T02:47:05.169Z,12.55
2023-12-30T02:49:34.613Z,14.65
2023-12-30T02:52:01.594Z,13.77
2023-12-30T02:54:30.966Z,12.55
2023-12-30T02:56:57.959Z,13.32
2023-12-30T02:59:24.598Z,11.40
2023-12-30T03:01:51.271Z,11.27
2023-12-30T03:04:18.216Z,10.50
2023-12-30T03:06:45.004Z,10.55
2023-12-30T03:09:11.794Z,9.35
2023-12-30T03:11:38.749Z,10.18
2023-12-30T03:14:05.400Z,9.52
2023-12-30T03:16:33.113Z,9.75
2023-12-30T03:19:00.081Z,8.75
2023-12-30T03:21:26.891Z,9.98
2023-12-30T03:23:53.566Z,8.70
2023-12-30T03:26:20.239Z,11.23
2023-12-30T03:28:46.941Z,10.70
2023-12-30T03:31:28.782Z,10.13
2023-12-30T03:33:56.611Z,10.20
2023-12-30T03:36:23.620Z,11.45
2023-12-30T03:38:52.878Z,10.30
2023-12-30T03:41:19.796Z,10.07
2023-12-30T03:43:47.019Z,9.65
2023-12-30T03:46:14.064Z,10.10
2023-12-30T03:48:40.798Z,9.93
2023-12-30T03:51:07.497Z,9.77
2023-12-30T03:53:34.776Z,8.93
2023-12-30T03:56:01.712Z,9.27
2023-12-30T03:58:28.758Z,8.88
2023-12-30T04:00:55.820Z,9.38
2023-12-30T04:03:22.727Z,8.60
2023-12-30T04:05:49.676Z,8.60
2023-12-30T04:08:16.501Z,7.88
2023-12-30T04:10:43.199Z,8.90
2023-12-30T04:13:10.895Z,8.60
2023-12-30T04:15:38.591Z,8.82
2023-12-30T04:18:05.824Z,8.55
2023-12-30T04:20:32.745Z,9.52
2023-12-30T04:22:59.797Z,9.30
2023-12-30T04:25:26.742Z,8.05
2023-12-30T04:27:53.479Z,8.32
2023-12-30T04:30:20.201Z,8.40
2023-12-30T04:32:47.084Z,9.20
2023-12-30T04:35:13.838Z,8.20
2023-12-30T04:37:40.712Z,9.70
2023-12-30T04:40:08.195Z,9.00
2023-12-30T04:42:34.939Z,8.40
2023-12-30T04:45:01.618Z,9.75
2023-12-30T04:47:28.342Z,9.27
2023-12-30T04:49:55.041Z,12.00
2023-12-30T04:52:21.821Z,9.85
2023-12-30T04:54:51.408Z,10.73
2023-12-30T04:57:21.021Z,11.82
2023-12-30T04:59:47.664Z,12.48
2023-12-30T05:02:14.390Z,11.60
2023-12-30T05:04:43.892Z,12.73
2023-12-30T05:07:10.827Z,12.93
2023-12-30T05:09:37.667Z,13.50
2023-12-30T05:12:04.580Z,12.70
2023-12-30T05:14:31.225Z,15.38
2023-12-30T05:16:57.898Z,13.88
2023-12-30T05:19:24.551Z,12.70
2023-12-30T05:21:54.674Z,12.90
2023-12-30T05:24:21.439Z,13.43
2023-12-30T05:26:48.366Z,15.10
2023-12-30T05:29:15.037Z,11.98
2023-12-30T05:31:41.684Z,11.45
2023-12-30T05:34:09.918Z,13.52
2023-12-30T05:36:39.820Z,12.55
2023-12-30T05:39:06.745Z,13.63
2023-12-30T05:41:33.446Z,13.45
2023-12-30T05:44:00.093Z,11.20
2023-12-30T05:46:27.990Z,11.70
2023-12-30T05:48:54.921Z,14.40
2023-12-30T05:51:23.113Z,12.27
2023-12-30T05:53:51.340Z,11.38
2023-12-30T05:56:25.052Z,12.18
2023-12-30T05:58:53.920Z,10.85
2023-12-30T06:01:21.210Z,11.00
2023-12-30T06:03:48.091Z,11.20
2023-12-30T06:06:14.850Z,11.27
2023-12-30T06:08:41.538Z,11.23
2023-12-30T06:11:08.211Z,10.05
2023-12-30T06:13:35.874Z,11.35
2023-12-30T06:16:02.658Z,10.70
2023-12-30T06:18:32.563Z,10.35
2023-12-30T06:21:00.074Z,10.70
2023-12-30T06:23:29.969Z,11.27
2023-12-30T06:25:56.855Z,11.13
2023-12-30T06:28:25.740Z,10.00
2023-12-30T06:30:52.551Z,10.02
2023-12-30T06:33:23.287Z,9.95
2023-12-30T06:38:17.042Z,8.25
2023-12-30T06:40:44.074Z,9.52
2023-12-30T06:43:10.809Z,9.20
2023-12-30T06:45:37.758Z,9.63
2023-12-30T06:48:05.071Z,9.43
2023-12-30T06:50:31.784Z,9.25
2023-12-30T06:53:02.191Z,9.20
2023-12-30T06:55:35.231Z,9.18
2023-12-30T06:58:09.630Z,9.93
2023-12-30T07:00:36.696Z,9.73
2023-12-30T07:03:03.904Z,10.13
2023-12-30T07:05:36.941Z,9.45
2023-12-30T07:08:04.161Z,9.25
2023-12-30T07:10:30.808Z,9.07
2023-12-30T07:12:57.478Z,9.82
2023-12-30T07:15:24.132Z,9.45
2023-12-30T07:17:50.874Z,8.88
2023-12-30T07:20:17.821Z,9.02
2023-12-30T07:22:45.266Z,9.63
2023-12-30T07:25:12.237Z,9.30
2023-12-30T07:27:39.149Z,9.02
2023-12-30T07:30:07.025Z,8.45
2023-12-30T07:32:33.819Z,10.98
2023-12-30T07:35:01.078Z,9.95
2023-12-30T07:37:28.960Z,9.38
2023-12-30T07:39:55.996Z,9.02
2023-12-30T07:42:23.972Z,9.15
2023-12-30T07:44:52.473Z,8.35
2023-12-30T07:47:19.195Z,8.82
2023-12-30T07:49:46.608Z,9.15
2023-12-30T07:52:13.481Z,10.52
2023-12-30T07:54:40.212Z,11.32
2023-12-30T07:57:06.999Z,10.77
2023-12-30T07:59:33.589Z,11.60
2023-12-30T08:02:00.456Z,10.27
2023-12-30T08:04:27.170Z,11.13
2023-12-30T08:06:54.775Z,10.18
2023-12-30T08:09:21.500Z,9.45
2023-12-30T08:11:58.246Z,8.98
2023-12-30T08:14:28.753Z,9.68
2023-12-30T08:16:55.471Z,9.70
2023-12-30T08:19:22.163Z,8.75
2023-12-30T08:21:48.996Z,9.70
2023-12-30T08:24:17.801Z,9.43
2023-12-30T08:26:44.658Z,9.32
2023-12-30T08:29:11.467Z,9.50
2023-12-30T08:31:38.499Z,8.82
2023-12-30T08:34:05.589Z,8.52
2023-12-30T08:36:32.376Z,9.95
2023-12-30T08:38:59.191Z,9.30
2023-12-30T08:41:29.200Z,9.27
2023-12-30T08:43:58.873Z,9.32
2023-12-30T08:46:27.027Z,7.88
2023-12-30T08:48:55.629Z,7.57
2023-12-30T08:51:23.913Z,8.20
2023-12-30T08:53:50.520Z,8.63
2023-12-30T08:56:17.179Z,8.52
2023-12-30T08:58:43.825Z,7.53
2023-12-30T09:01:10.635Z,6.85
2023-12-30T09:03:38.344Z,7.43
2023-12-30T09:06:05.239Z,8.30
2023-12-30T09:08:31.998Z,6.93
2023-12-30T09:10:59.805Z,6.95
2023-12-30T09:13:26.576Z,8.55
2023-12-30T09:15:53.428Z,8.40
2023-12-30T09:18:20.181Z,9.10
2023-12-30T09:20:46.924Z,8.05
2023-12-30T09:23:13.807Z,8.75
2023-12-30T09:25:40.677Z,9.02
2023-12-30T09:28:07.447Z,8.32
2023-12-30T09:30:34.260Z,7.97
2023-12-30T09:33:01.286Z,7.47
2023-12-30T09:35:29.011Z,7.05
2023-12-30T09:37:55.696Z,8.15
2023-12-30T09:40:22.388Z,8.98
2023-12-30T09:42:52.208Z,8.40
2023-12-30T09:45:20.075Z,8.60
2023-12-30T09:47:47.412Z,8.75
2023-12-30T09:50:14.547Z,8.63
2023-12-30T09:52:41.327Z,8.82
2023-12-30T09:55:08.527Z,9.32
2023-12-30T09:57:35.501Z,8.55
2023-12-30T10:00:03.476Z,10.18
2023-12-30T10:02:31.259Z,9.73
2023-12-30T10:04:59.003Z,9.02
2023-12-30T10:07:26.029Z,8.95
2023-12-30T10:09:53.333Z,9.05
2023-12-30T10:12:20.172Z,9.30
2023-12-30T10:14:46.914Z,9.65
2023-12-30T10:17:16.625Z,8.48
2023-12-30T10:19:43.254Z,8.77
2023-12-30T10:22:10.172Z,9.18
2023-12-30T10:24:36.923Z,9.70
2023-12-30T10:27:05.904Z,10.05
2023-12-30T10:29:42.938Z,10.90
2023-12-30T10:32:22.097Z,10.18
2023-12-30T10:34:49.142Z,9.98
2023-12-30T10:37:17.451Z,11.02
2023-12-30T10:39:46.319Z,10.30
2023-12-30T10:42:14.377Z,9.48
2023-12-30T10:44:41.123Z,10.43
2023-12-30T10:47:09.896Z,9.85
2023-12-30T10:49:41.567Z,8.77
2023-12-30T10:52:13.881Z,8.18
2023-12-30T10:54:45.987Z,10.43
2023-12-30T10:57:17.591Z,8.45
2023-12-30T10:59:45.834Z,8.70
2023-12-30T11:02:12.698Z,9.00
2023-12-30T11:04:40.072Z,7.30
2023-12-30T11:07:11.875Z,7.50
2023-12-30T11:09:38.645Z,6.78
2023-12-30T11:12:07.178Z,6.15
2023-12-30T11:14:37.066Z,6.43
2023-12-30T11:17:03.812Z,6.73
2023-12-30T11:19:36.320Z,5.95
2023-12-30T11:22:07.433Z,5.20
2023-12-30T11:24:35.286Z,7.38
2023-12-30T11:27:02.031Z,6.35
2023-12-30T11:29:29.864Z,5.50
2023-12-30T11:31:58.849Z,4.45
2023-12-30T11:34:26.429Z,4.97
2023-12-30T11:36:54.543Z,5.85
2023-12-30T11:39:29.597Z,5.82
2023-12-30T11:41:59.121Z,4.72
2023-12-30T11:44:28.445Z,4.45
2023-12-30T11:46:55.224Z,4.43
2023-12-30T11:49:24.037Z,4.95
2023-12-30T11:51:51.740Z,4.70
2023-12-30T11:54:19.223Z,4.55
2023-12-30T11:56:49.101Z,3.97
2023-12-30T11:59:15.834Z,3.80
2023-12-30T12:01:44.183Z,3.30
2023-12-30T12:04:11.281Z,3.72
2023-12-30T12:06:39.429Z,3.50
2023-12-30T12:09:07.299Z,3.70
2023-12-30T12:11:34.092Z,3.30
2023-12-30T12:14:00.847Z,3.30
2023-12-30T12:16:29.164Z,2.83
2023-12-30T12:18:56.276Z,3.42
2023-12-30T12:21:26.130Z,3.47
2023-12-30T12:23:54.755Z,3.03
2023-12-30T12:26:24.208Z,2.60
2023-12-30T12:28:53.633Z,2.13
2023-12-30T12:31:20.405Z,1.95
2023-12-30T12:33:47.053Z,1.90
2023-12-30T12:36:19.112Z,2.10
2023-12-30T12:38:46.164Z,2.35
2023-12-30T12:41:16.153Z,3.30
2023-12-30T12:43:42.907Z,2.42
2023-12-30T12:46:10.187Z,2.55
2023-12-30T12:48:39.316Z,2.80
2023-12-30T12:51:06.209Z,2.40
2023-12-30T12:53:32.876Z,2.47
2023-12-30T12:55:59.505Z,2.63
2023-12-30T12:58:26.187Z,2.40
2023-12-30T13:00:52.879Z,2.63
2023-12-30T13:03:21.230Z,2.13
2023-12-30T13:05:47.908Z,2.38
2023-12-30T13:08:14.567Z,2.35
2023-12-30T13:10:49.792Z,3.10
2023-12-30T13:13:16.927Z,2.95
2023-12-30T13:15:43.969Z,2.53
2023-12-30T13:18:13.673Z,2.95
2023-12-30T13:20:42.729Z,3.10
2023-12-30T13:23:12.008Z,2.40
2023-12-30T13:25:39.356Z,2.45
2023-12-30T13:28:07.551Z,2.38
2023-12-30T13:30:34.396Z,2.63
2023-12-30T13:33:05.157Z,2.80
2023-12-30T13:35:39.707Z,2.58
2023-12-30T13:38:16.468Z,2.55
2023-12-30T13:40:44.545Z,2.40
2023-12-30T13:43:11.726Z,2.50
2023-12-30T13:45:49.955Z,2.88
2023-12-30T13:48:16.754Z,2.55
2023-12-30T13:50:56.425Z,2.70
2023-12-30T13:53:25.653Z,2.58
2023-12-30T13:55:59.086Z,2.45
2023-12-30T13:58:25.824Z,2.67
2023-12-30T14:00:52.540Z,2.42
2023-12-30T14:03:20.012Z,2.05
2023-12-30T14:05:49.029Z,2.13
2023-12-30T14:08:27.951Z,2.00
2023-12-30T14:10:55.518Z,2.00
2023-12-30T14:13:24.208Z,2.22
2023-12-30T14:15:52.603Z,2.20
2023-12-30T14:18:20.376Z,1.83
2023-12-30T14:20:48.439Z,2.33
2023-12-30T14:23:15.504Z,1.73
2023-12-30T14:25:42.707Z,1.75
2023-12-30T14:28:10.888Z,1.90
2023-12-30T14:30:38.039Z,1.60
2023-12-30T14:33:06.675Z,1.40
2023-12-30T14:35:33.933Z,1.77
2023-12-30T14:38:02.683Z,1.50
2023-12-30T14:40:29.929Z,1.45
2023-12-30T14:42:56.855Z,1.25
2023-12-30T14:45:24.160Z,1.40
2023-12-30T14:47:51.097Z,1.40
2023-12-30T14:50:17.898Z,1.60
2023-12-30T14:52:44.891Z,1.63
2023-12-30T14:55:12.472Z,1.63
2023-12-30T14:57:40.737Z,1.35
2023-12-30T15:00:14.508Z,1.20
2023-12-30T15:02:44.744Z,1.65
2023-12-30T15:05:15.387Z,1.20
2023-12-30T15:07:43.540Z,1.20
2023-12-30T15:10:12.328Z,1.30
2023-12-30T15:12:40.756Z,1.15
2023-12-30T15:15:09.140Z,1.70
2023-12-30T15:17:36.116Z,1.23
2023-12-30T15:20:03.452Z,1.50
2023-12-30T15:22:31.287Z,1.55
2023-12-30T15:24:59.123Z,1.50
2023-12-30T15:27:25.815Z,1.40
2023-12-30T15:29:52.442Z,1.45
2023-12-30T15:32:19.530Z,1.27
2023-12-30T15:34:46.663Z,1.45
2023-12-30T15:37:14.940Z,1.30
2023-12-30T15:39:41.832Z,1.40
2023-12-30T15:42:08.553Z,1.50
2023-12-30T15:44:38.155Z,1.40
2023-12-30T15:47:08.370Z,1.35
2023-12-30T15:49:35.567Z,1.75
2023-12-30T15:52:02.604Z,1.60
2023-12-30T15:54:29.422Z,1.55
2023-12-30T15:56:56.100Z,2.30
2023-12-30T15:59:22.794Z,1.73
2023-12-30T16:01:49.562Z,1.90
2023-12-30T16:04:16.273Z,1.90
2023-12-30T16:06:42.994Z,1.88
2023-12-30T16:09:09.708Z,2.00
2023-12-30T16:11:36.893Z,1.95
2023-12-30T16:14:05.753Z,1.98
2023-12-30T16:16:35.048Z,1.83
2023-12-30T16:19:02.258Z,1.80
2023-12-30T16:21:28.960Z,2.20
2023-12-30T16:23:55.585Z,2.10
2023-12-30T16:26:23.996Z,1.85
2023-12-30T16:28:50.641Z,2.20
2023-12-30T16:31:17.534Z,2.10
2023-12-30T16:33:45.518Z,2.05
2023-12-30T16:36:14.439Z,1.92
2023-12-30T16:38:41.101Z,2.13
2023-12-30T16:41:07.784Z,1.85
2023-12-30T16:43:38.051Z,1.83
2023-12-30T16:46:04.956Z,2.22
2023-12-30T16:48:31.663Z,2.30
2023-12-30T16:50:58.497Z,2.63
2023-12-30T16:53:25.180Z,2.65
2023-12-30T16:55:51.941Z,2.83
2023-12-30T16:58:20.225Z,3.13
2023-12-30T17:00:48.486Z,2.70
2023-12-30T17:03:15.313Z,2.90
2023-12-30T17:05:43.592Z,3.50
2023-12-30T17:08:10.492Z,2.63
2023-12-30T17:10:37.349Z,2.60
2023-12-30T17:13:04.517Z,2.55
2023-12-30T17:15:31.327Z,2.30
2023-12-30T17:17:57.999Z,2.60
2023-12-30T17:20:24.721Z,2.17
2023-12-30T17:22:51.373Z,2.50
2023-12-30T17:25:18.047Z,2.42
2023-12-30T17:27:45.247Z,3.10
2023-12-30T17:30:12.829Z,2.65
2023-12-30T17:32:39.536Z,2.80
2023-12-30T17:35:06.989Z,2.30
2023-12-30T17:37:33.681Z,2.70
2023-12-30T17:40:00.525Z,2.55
2023-12-30T17:42:27.198Z,2.72
2023-12-30T17:44:53.936Z,2.78
2023-12-30T17:47:20.593Z,2.83
2023-12-30T17:49:48.213Z,3.15
2023-12-30T17:52:15.032Z,2.88
2023-12-30T17:54:42.680Z,2.78
2023-12-30T17:57:09.789Z,2.67
2023-12-30T17:59:36.403Z,3.15
2023-12-30T18:02:03.074Z,2.85
2023-12-30T18:04:30.279Z,3.17
2023-12-30T18:06:56.969Z,3.50
2023-12-30T18:09:23.561Z,2.85
2023-12-30T18:11:50.339Z,2.88
2023-12-30T18:14:18.933Z,3.78
2023-12-30T18:16:45.530Z,3.30
2023-12-30T18:19:12.571Z,3.90
2023-12-30T18:21:39.357Z,2.75
2023-12-30T18:24:06.328Z,3.60
2023-12-30T18:26:32.927Z,2.78
2023-12-30T18:28:59.556Z,3.03
2023-12-30T18:31:26.223Z,3.92
2023-12-30T18:33:53.018Z,3.55
2023-12-30T18:36:19.686Z,3.85
2023-12-30T18:38:46.300Z,4.15
2023-12-30T18:41:13.438Z,3.47
2023-12-30T18:43:40.304Z,3.65
2023-12-30T18:46:07.095Z,3.85
2023-12-30T18:48:33.916Z,3.65
2023-12-30T18:51:00.715Z,3.97
2023-12-30T18:53:27.414Z,4.13
2023-12-30T18:55:54.092Z,4.18
2023-12-30T18:58:21.296Z,4.80
2023-12-30T19:00:50.355Z,4.25
2023-12-30T19:03:17.234Z,4.45
2023-12-30T19:05:44.126Z,4.18
2023-12-30T19:08:10.859Z,4.53
2023-12-30T19:10:37.787Z,4.63
2023-12-30T19:13:05.775Z,4.32
2023-12-30T19:15:32.758Z,4.13
2023-12-30T19:17:59.501Z,4.47
2023-12-30T19:20:26.215Z,4.20
2023-12-30T19:22:53.215Z,4.85
2023-12-30T19:25:20.036Z,4.35
2023-12-30T19:27:47.194Z,4.50
2023-12-30T19:30:14.421Z,4.15
2023-12-30T19:32:41.147Z,4.03
2023-12-30T19:35:09.037Z,4.07
2023-12-30T19:37:36.639Z,4.20
2023-12-30T19:40:04.757Z,4.70
2023-12-30T19:42:31.903Z,4.57
2023-12-30T19:44:58.622Z,3.75
2023-12-30T19:47:25.224Z,3.97
2023-12-30T19:49:51.941Z,4.20
2023-12-30T19:52:18.665Z,4.47
2023-12-30T19:54:45.395Z,4.70
2023-12-30T19:57:13.005Z,4.95
2023-12-30T19:59:40.775Z,4.40
2023-12-30T20:02:08.328Z,5.15
2023-12-30T20:04:40.340Z,4.78
2023-12-30T20:07:08.935Z,4.97
2023-12-30T20:09:36.799Z,5.07
2023-12-30T20:12:03.890Z,5.70
2023-12-30T20:14:30.481Z,4.80
2023-12-30T20:17:01.659Z,4.53
2023-12-30T20:19:31.353Z,4.88
2023-12-30T20:21:58.032Z,4.28
2023-12-30T20:24:27.366Z,5.18
2023-12-30T20:26:57.853Z,5.25
2023-12-30T20:29:24.516Z,6.13
2023-12-30T20:31:53.530Z,6.13
2023-12-30T20:34:21.885Z,5.22
2023-12-30T20:36:48.541Z,5.38
2023-12-30T20:39:15.693Z,5.90
2023-12-30T20:41:45.125Z,6.07
2023-12-30T20:44:12.264Z,5.88
2023-12-30T20:46:42.826Z,5.55
2023-12-30T20:49:09.744Z,5.05
2023-12-30T20:51:36.409Z,6.05
2023-12-30T20:54:03.048Z,6.55
2023-12-30T20:56:29.750Z,6.65
2023-12-30T20:58:56.341Z,6.85
2023-12-30T21:01:23.236Z,6.03
2023-12-30T21:03:50.462Z,5.72
2023-12-30T21:06:17.138Z,6.07
2023-12-30T21:08:47.174Z,7.13
2023-12-30T21:11:16.648Z,7.53
2023-12-30T21:13:43.471Z,6.63
2023-12-30T21:16:10.335Z,6.13
2023-12-30T21:18:37.077Z,5.95
2023-12-30T21:21:05.419Z,8.00
2023-12-30T21:23:32.015Z,6.63
2023-12-30T21:25:59.410Z,6.97
2023-12-30T21:28:29.366Z,7.32
2023-12-30T21:30:56.140Z,7.60
2023-12-30T21:33:22.894Z,8.35
2023-12-30T21:35:49.554Z,7.47
2023-12-30T21:38:16.380Z,7.35
2023-12-30T21:40:43.129Z,8.80
2023-12-30T21:43:09.826Z,8.45
2023-12-30T21:45:36.499Z,8.15
2023-12-30T21:48:03.222Z,8.68
2023-12-30T21:50:30.068Z,9.13
2023-12-30T21:52:57.150Z,8.32
2023-12-30T21:55:23.797Z,6.53
2023-12-30T21:57:50.469Z,8.43
2023-12-30T22:00:17.260Z,7.25
2023-12-30T22:02:43.968Z,7.00
2023-12-30T22:05:10.888Z,7.82
2023-12-30T22:07:37.698Z,7.30
2023-12-30T22:10:04.909Z,8.27
2023-12-30T22:12:33.484Z,7.75
2023-12-30T22:15:00.468Z,7.10
2023-12-30T22:17:27.310Z,7.47
2023-12-30T22:19:55.361Z,6.75
2023-12-30T22:22:22.179Z,8.27
2023-12-30T22:24:48.855Z,6.53
2023-12-30T22:27:15.481Z,6.68
2023-12-30T22:29:43.566Z,8.40
2023-12-30T22:32:10.226Z,7.90
2023-12-30T22:34:36.929Z,8.10
2023-12-30T22:37:03.802Z,8.02
2023-12-30T22:39:30.461Z,8.35
2023-12-30T22:41:57.213Z,8.13
2023-12-30T22:44:23.837Z,7.53
2023-12-30T22:46:50.526Z,7.57
2023-12-30T22:49:17.421Z,7.55
2023-12-30T22:51:51.147Z,6.43
2023-12-30T22:54:18.802Z,7.47
2023-12-30T22:56:46.296Z,8.23
2023-12-30T22:59:17.076Z,7.97
2023-12-30T23:04:10.829Z,8.60
2023-12-30T23:06:37.810Z,7.90
2023-12-30T23:09:04.592Z,8.25
2023-12-30T23:11:31.392Z,8.63
2023-12-30T23:13:57.986Z,8.43
2023-12-30T23:16:24.797Z,7.03
2023-12-30T23:18:52.165Z,9.07
2023-12-30T23:21:18.953Z,6.65
2023-12-30T23:23:45.623Z,8.07
2023-12-30T23:26:12.294Z,9.30
2023-12-30T23:28:39.134Z,8.80
2023-12-30T23:31:07.060Z,9.73
2023-12-30T23:33:33.918Z,7.57
2023-12-30T23:36:00.610Z,8.50
2023-12-30T23:38:27.281Z,8.85
2023-12-30T23:40:53.936Z,8.38
2023-12-30T23:43:20.620Z,7.25
2023-12-30T23:45:47.239Z,7.35
2023-12-30T23:48:14.431Z,8.32
2023-12-30T23:50:41.188Z,7.50
2023-12-30T23:53:08.500Z,8.60
2023-12-30T23:55:35.362Z,8.07
2023-12-30T23:58:02.145Z,9.15
